Time;durP1;ratioP1;P1;durP2;ratioP2;P2;SDS_P1;SDS_P2;PMS_P1;PMS_P2;Temp;Humidity;BMP_temperature;BMP_pressure;BME280_temperature;BME280_humidity;BME280_pressure;Samples;Min_cycle;Max_cycle;Signal;HPM_P1;HPM_P2
2022/08/16 00:00:11;;;;;;;21.00;18.65;;;;;;;20.31;100.00;99906.06;4988940;28;20069;-56
2022/08/16 00:02:49;;;;;;;19.70;17.73;;;;;;;20.29;100.00;99918.72;4991837;28;20042;-52
2022/08/16 00:05:19;;;;;;;21.05;18.50;;;;;;;20.29;100.00;99920.56;4989847;28;20050;-54
2022/08/16 00:07:46;;;;;;;24.10;19.90;;;;;;;20.27;100.00;99914.59;4991552;28;20081;-57
2022/08/16 00:10:14;;;;;;;17.75;15.98;;;;;;;20.24;100.00;99907.72;4989894;28;20054;-53
2022/08/16 00:12:47;;;;;;;19.00;17.05;;;;;;;20.22;100.00;99913.25;4991763;28;20050;-57
2022/08/16 00:15:22;;;;;;;20.50;18.50;;;;;;;20.19;100.00;99902.88;4989314;28;20068;-57
2022/08/16 00:17:49;;;;;;;23.27;18.42;;;;;;;20.18;100.00;99901.22;4995243;28;20054;-55
2022/08/16 00:20:24;;;;;;;23.52;20.15;;;;;;;20.17;100.00;99904.06;4989835;28;20062;-56
2022/08/16 00:22:51;;;;;;;22.65;20.20;;;;;;;20.10;100.00;99905.75;4984845;28;20458;-55
2022/08/16 00:25:20;;;;;;;19.77;17.77;;;;;;;20.08;100.00;99911.25;4989319;28;20070;-57
2022/08/16 00:28:08;;;;;;;20.63;18.50;;;;;;;20.07;100.00;99919.44;4990350;28;20058;-53
2022/08/16 00:30:37;;;;;;;19.92;17.85;;;;;;;20.06;100.00;99917.78;4990010;28;20047;-57
2022/08/16 00:33:05;;;;;;;20.15;16.52;;;;;;;20.02;100.00;99917.28;4992209;28;20054;-56
2022/08/16 00:35:35;;;;;;;22.60;16.85;;;;;;;20.00;100.00;99915.78;4990046;28;20065;-57
2022/08/16 00:38:04;;;;;;;18.27;15.65;;;;;;;19.97;100.00;99919.63;4991135;28;20056;-57
2022/08/16 00:40:53;;;;;;;20.05;17.35;;;;;;;19.94;100.00;99925.28;4984329;28;20062;-58
2022/08/16 00:43:33;;;;;;;22.73;16.60;;;;;;;19.91;100.00;99925.66;4991031;28;20054;-58
2022/08/16 00:46:19;;;;;;;18.70;15.80;;;;;;;19.89;100.00;99927.63;4993207;28;20435;-54
2022/08/16 00:49:04;;;;;;;19.35;16.38;;;;;;;19.85;100.00;99923.63;4985958;28;20046;-55
2022/08/16 00:51:31;;;;;;;19.63;15.55;;;;;;;19.82;100.00;99922.13;4988349;28;20073;-56
2022/08/16 00:54:00;;;;;;;16.63;13.88;;;;;;;19.79;100.00;99922.47;4991024;28;20531;-58
2022/08/16 00:56:31;;;;;;;21.30;15.45;;;;;;;19.77;100.00;99919.13;4987682;28;20080;-55
2022/08/16 00:59:20;;;;;;;17.00;15.30;;;;;;;19.73;100.00;99929.31;4989504;28;20054;-56
2022/08/16 01:01:50;;;;;;;17.30;15.25;;;;;;;19.71;100.00;99920.63;4989651;28;20050;-58
2022/08/16 01:04:21;;;;;;;15.88;14.30;;;;;;;19.70;100.00;99929.63;4990203;28;20075;-58
2022/08/16 01:06:55;;;;;;;17.95;14.55;;;;;;;19.69;100.00;99933.31;4973592;28;20069;-60
2022/08/16 01:09:30;;;;;;;16.38;14.82;;;;;;;19.69;100.00;99946.66;4975266;28;20451;-56
2022/08/16 01:12:02;;;;;;;16.27;14.57;;;;;;;19.69;100.00;99943.16;4988477;28;20039;-56
2022/08/16 01:14:41;;;;;;;17.58;14.90;;;;;;;19.69;100.00;99944.00;4989431;28;20552;-56
2022/08/16 01:17:11;;;;;;;15.80;14.30;;;;;;;19.69;100.00;99943.16;4987731;28;20046;-56
2022/08/16 01:19:43;;;;;;;19.08;13.98;;;;;;;19.69;100.00;99938.66;4988581;28;20057;-56
2022/08/16 01:22:49;;;;;;;15.68;13.85;;;;;;;19.70;100.00;99948.34;4988197;28;20050;-57
2022/08/16 01:25:26;;;;;;;16.88;13.88;;;;;;;19.70;100.00;99951.00;4982935;28;20544;-57
2022/08/16 01:28:06;;;;;;;16.13;14.30;;;;;;;19.69;100.00;99961.84;4974120;28;20051;-60
2022/08/16 01:30:37;;;;;;;15.10;13.52;;;;;;;19.67;100.00;99954.00;4986351;28;20133;-58
2022/08/16 01:33:16;;;;;;;17.80;14.98;;;;;;;19.65;100.00;99955.19;4990309;28;20069;-53
2022/08/16 01:35:55;;;;;;;14.25;12.95;;;;;;;19.64;100.00;99954.34;4984182;28;20061;-56
2022/08/16 01:38:30;;;;;;;17.40;14.65;;;;;;;19.63;100.00;99952.69;4988400;28;20054;-57
2022/08/16 01:41:02;;;;;;;;;;;;;;;19.60;100.00;99968.16;4986683;28;20054;-55
2022/08/16 01:43:30;;;;;;;16.73;14.60;;;;;;;19.55;100.00;99974.00;4989988;28;19933;-55
2022/08/16 01:46:00;;;;;;;15.15;13.75;;;;;;;19.55;100.00;99976.66;4987975;28;20137;-57
2022/08/16 01:48:47;;;;;;;16.50;14.90;;;;;;;19.55;100.00;99962.47;4989349;28;20062;-57
2022/08/16 01:51:17;;;;;;;16.02;14.45;;;;;;;19.51;100.00;99966.47;4986609;28;20042;-52
2022/08/16 01:53:45;;;;;;;20.13;15.07;;;;;;;19.47;100.00;99968.63;4986421;28;20046;-58
2022/08/16 01:56:23;;;;;;;16.85;14.23;;;;;;;19.44;100.00;99955.59;4991324;28;20503;-56
2022/08/16 01:58:53;;;;;;;14.88;13.50;;;;;;;19.43;100.00;99964.63;4990848;28;20434;-61
2022/08/16 02:01:21;;;;;;;16.45;14.75;;;;;;;19.44;100.00;99956.44;4992390;28;20058;-57
2022/08/16 02:03:49;;;;;;;15.80;14.20;;;;;;;19.45;100.00;99959.94;4994049;28;20124;-55
2022/08/16 02:06:19;;;;;;;17.25;15.45;;;;;;;19.44;100.00;99956.44;4991835;28;20054;-57
2022/08/16 02:09:02;;;;;;;15.05;13.55;;;;;;;19.43;100.00;99951.25;4995404;28;20068;-56
2022/08/16 02:11:33;;;;;;;14.70;13.40;;;;;;;19.44;100.00;99958.28;4995513;28;20050;-59
2022/08/16 02:14:15;;;;;;;15.25;13.65;;;;;;;19.44;100.00;99952.94;4994643;28;20400;-55
2022/08/16 02:16:48;;;;;;;17.58;15.45;;;;;;;19.43;100.00;99964.63;4995321;28;20056;-56
2022/08/16 02:19:18;;;;;;;14.45;12.98;;;;;;;19.40;100.00;99968.44;4992573;28;20054;-57
2022/08/16 02:21:52;;;;;;;15.13;13.63;;;;;;;19.40;100.00;99968.44;4990433;28;20057;-57
2022/08/16 02:24:40;;;;;;;17.55;15.32;;;;;;;19.43;100.00;99969.94;4991969;28;20048;-58
2022/08/16 02:27:09;;;;;;;18.77;15.35;;;;;;;19.38;100.00;99959.75;4990995;28;20054;-57
2022/08/16 02:29:37;;;;;;;14.18;12.18;;;;;;;19.38;100.00;99966.94;4992293;28;20054;-54
2022/08/16 02:32:12;;;;;;;15.93;14.32;;;;;;;19.39;100.00;99979.28;4992424;28;20053;-55
2022/08/16 02:34:59;;;;;;;17.15;14.68;;;;;;;19.39;100.00;99968.59;4983971;28;20084;-57
2022/08/16 02:37:27;;;;;;;15.57;14.13;;;;;;;19.38;100.00;99965.09;4992623;28;20050;-56
2022/08/16 02:40:15;;;;;;;15.95;14.25;;;;;;;19.38;100.00;99978.44;4991532;28;20466;-65
2022/08/16 02:42:47;;;;;;;16.50;14.68;;;;;;;19.39;100.00;99988.13;4992456;28;20058;-58
2022/08/16 02:45:19;;;;;;;16.13;14.30;;;;;;;19.39;100.00;99977.44;4990841;28;20851;-57
2022/08/16 02:47:51;;;;;;;16.02;14.52;;;;;;;19.39;100.00;99989.97;4992615;28;20046;-56
2022/08/16 02:50:38;;;;;;;17.27;14.75;;;;;;;19.36;100.00;99980.47;4990608;28;20062;-58
2022/08/16 02:53:25;;;;;;;17.02;14.75;;;;;;;19.33;100.00;99971.94;4991965;28;20057;-56
2022/08/16 02:55:53;;;;;;;17.27;14.48;;;;;;;19.30;100.00;99966.91;4991085;28;20069;-55
2022/08/16 02:58:22;;;;;;;18.70;14.32;;;;;;;19.28;100.00;99976.94;4992159;28;20038;-56
2022/08/16 03:00:52;;;;;;;16.17;14.57;;;;;;;19.28;100.00;99977.75;4991053;28;20058;-60
2022/08/16 03:03:24;;;;;;;17.38;15.27;;;;;;;19.28;100.00;99983.09;4989899;28;20053;-58
2022/08/16 03:05:52;;;;;;;15.10;13.60;;;;;;;19.27;100.00;99985.91;4990274;28;20051;-58
2022/08/16 03:08:21;;;;;;;15.80;14.23;;;;;;;19.27;100.00;99984.06;4992059;28;20050;-58
2022/08/16 03:11:08;;;;;;;17.25;14.38;;;;;;;19.24;100.00;99984.41;4990225;28;20054;-57
2022/08/16 03:13:50;;;;;;;15.13;13.63;;;;;;;19.23;100.00;99986.25;4992837;28;20050;-54
2022/08/16 03:16:23;;;;;;;15.98;14.57;;;;;;;19.23;100.00;99990.75;4988942;28;20418;-56
2022/08/16 03:19:05;;;;;;;16.70;15.10;;;;;;;19.22;100.00;99992.56;4991499;28;20419;-59
2022/08/16 03:21:34;;;;;;;16.58;13.75;;;;;;;19.21;100.00;99987.41;4993309;28;20569;-57
2022/08/16 03:24:06;;;;;;;14.52;13.18;;;;;;;19.23;100.00;99986.25;4993109;28;20058;-56
2022/08/16 03:26:54;;;;;;;17.60;13.02;;;;;;;19.26;100.00;99989.59;4983905;28;20046;-54
2022/08/16 03:29:30;;;;;;;15.23;13.75;;;;;;;19.31;100.00;99995.25;4991845;28;20050;-55
2022/08/16 03:31:58;;;;;;;15.48;13.80;;;;;;;19.37;100.00;99994.63;4990948;28;20157;-57
2022/08/16 03:34:28;;;;;;;15.98;14.43;;;;;;;19.38;100.00;99997.13;4991740;28;20054;-57
2022/08/16 03:36:56;;;;;;;17.88;16.08;;;;;;;19.34;100.00;99990.44;4990241;28;20078;-57
2022/08/16 03:39:23;;;;;;;16.17;14.55;;;;;;;19.36;100.00;99995.59;4991683;28;20057;-58
2022/08/16 03:41:52;;;;;;;17.63;15.73;;;;;;;19.36;100.00;99990.28;4985993;28;20050;-57
2022/08/16 03:44:28;;;;;;;15.48;13.88;;;;;;;19.36;100.00;99993.81;4988952;28;20126;-55
2022/08/16 03:47:13;;;;;;;16.77;15.00;;;;;;;19.37;100.00;99998.13;4987896;28;20046;-58
2022/08/16 03:49:46;;;;;;;16.70;14.82;;;;;;;19.38;100.00;99998.97;4990198;28;20299;-59
2022/08/16 03:52:19;;;;;;;17.50;15.80;;;;;;;19.36;100.00;100000.94;4986191;28;20042;-55
2022/08/16 03:54:51;;;;;;;18.25;14.57;;;;;;;19.38;100.00;100004.31;4986395;28;20133;-58
2022/08/16 03:57:25;;;;;;;17.33;15.55;;;;;;;19.37;100.00;99999.97;4988441;28;20065;-58
2022/08/16 04:00:13;;;;;;;18.17;16.35;;;;;;;19.37;100.00;99998.13;4990307;28;20050;-57
2022/08/16 04:03:06;;;;;;;16.92;13.85;;;;;;;19.34;100.00;100000.28;4975016;28;20048;-57
2022/08/16 04:05:37;;;;;;;17.17;15.40;;;;;;;19.34;100.00;99992.28;4989906;28;20054;-57
2022/08/16 04:08:05;;;;;;;18.50;16.63;;;;;;;19.33;100.00;100002.13;4991578;28;20050;-56
2022/08/16 04:10:51;;;;;;;19.85;16.05;;;;;;;19.34;100.00;100008.28;4989566;28;20057;-58
2022/08/16 04:13:19;;;;;;;18.60;15.98;;;;;;;19.39;100.00;100003.31;4991252;28;20043;-53
2022/08/16 04:16:07;;;;;;;20.00;17.08;;;;;;;19.42;100.00;100011.00;4989513;28;20054;-58
2022/08/16 04:18:37;;;;;;;18.15;16.33;;;;;;;19.43;100.00;100010.81;4987724;28;20419;-56
2022/08/16 04:21:04;;;;;;;18.63;16.13;;;;;;;19.48;100.00;100015.69;4989342;28;20161;-55
2022/08/16 04:23:32;;;;;;;15.35;13.85;;;;;;;19.49;100.00;100014.66;4991227;28;20515;-56
2022/08/16 04:25:59;;;;;;;16.98;15.23;;;;;;;19.52;100.00;100022.38;4983877;28;20080;-57
2022/08/16 04:28:28;;;;;;;18.27;16.40;;;;;;;19.52;100.00;100017.03;4991124;28;20061;-58
2022/08/16 04:31:15;;;;;;;21.63;15.63;;;;;;;19.55;100.00;100021.22;4988863;28;20057;-56
2022/08/16 04:33:42;;;;;;;17.85;15.50;;;;;;;19.61;100.00;100028.59;4991146;28;20054;-57
2022/08/16 04:36:18;;;;;;;19.50;16.92;;;;;;;19.65;100.00;100025.44;4988183;28;20057;-58
2022/08/16 04:38:46;;;;;;;17.45;15.65;;;;;;;19.68;100.00;100027.78;4989234;28;20050;-62
2022/08/16 04:41:18;;;;;;;17.27;15.48;;;;;;;19.73;100.00;100024.63;4986020;28;20058;-55
2022/08/16 04:43:59;;;;;;;16.42;14.55;;;;;;;19.78;100.00;100026.81;4984925;28;20109;-58
2022/08/16 04:46:26;;;;;;;15.95;14.45;;;;;;;19.85;100.00;100033.13;4988996;28;20055;-57
2022/08/16 04:49:13;;;;;;;15.88;14.27;;;;;;;19.90;100.00;100034.34;4989367;28;20054;-56
2022/08/16 04:51:40;;;;;;;18.92;16.90;;;;;;;19.94;100.00;100032.16;4989051;28;20138;-58
2022/08/16 04:54:09;;;;;;;17.67;15.32;;;;;;;19.97;100.00;100030.00;4991327;28;20065;-56
2022/08/16 04:56:36;;;;;;;16.13;14.60;;;;;;;20.03;100.00;100033.81;4989989;28;20499;-56
2022/08/16 04:59:12;;;;;;;18.83;15.43;;;;;;;20.10;100.00;100034.84;4992268;28;20065;-58
2022/08/16 05:01:43;;;;;;;18.65;16.85;;;;;;;20.14;100.00;100038.84;4990982;28;20058;-56
2022/08/16 05:04:25;;;;;;;19.85;16.92;;;;;;;20.18;100.00;100047.38;4990191;28;20061;-56
2022/08/16 05:06:56;;;;;;;18.10;16.40;;;;;;;20.22;100.00;100051.41;4987974;28;20054;-58
2022/08/16 05:09:23;;;;;;;19.15;16.55;;;;;;;20.23;100.00;100053.06;4990407;28;20038;-58
2022/08/16 05:11:50;;;;;;;17.50;15.50;;;;;;;20.30;100.00;100058.56;4989490;28;20416;-57
2022/08/16 05:14:17;;;;;;;20.85;18.55;;;;;;;20.33;100.00;100047.53;4999168;28;20054;-59
2022/08/16 05:17:04;;;;;;;20.88;17.02;;;;;;;20.37;100.00;100059.56;5001342;28;20133;-58
2022/08/16 05:19:32;;;;;;;18.35;16.50;;;;;;;20.39;100.00;100054.88;5005861;28;20058;-55
2022/08/16 05:22:02;;;;;;;18.65;15.25;;;;;;;20.45;100.00;100057.75;5003687;28;20394;-57
2022/08/16 05:24:30;;;;;;;19.42;17.45;;;;;;;20.48;100.00;100048.56;5004197;28;20057;-57
2022/08/16 05:26:57;;;;;;;18.67;16.50;;;;;;;20.54;100.00;100050.56;4993599;28;20049;-55
2022/08/16 05:29:37;;;;;;;20.63;17.50;;;;;;;20.60;100.00;100049.91;4987986;28;20054;-53
2022/08/16 05:32:24;;;;;;;19.65;17.73;;;;;;;20.67;100.00;100058.09;4989829;28;20058;-53
2022/08/16 05:35:00;;;;;;;18.70;16.70;;;;;;;20.72;100.00;100053.06;4981283;28;20046;-57
2022/08/16 05:37:28;;;;;;;21.65;17.30;;;;;;;20.73;100.00;100058.22;4989273;28;20065;-56
2022/08/16 05:40:07;;;;;;;20.60;17.90;;;;;;;20.76;100.00;100056.22;4986000;28;20061;-57
2022/08/16 05:42:34;;;;;;;18.05;16.35;;;;;;;20.74;100.00;100054.53;4987924;28;20057;-54
2022/08/16 05:45:03;;;;;;;17.88;16.17;;;;;;;20.78;100.00;100062.25;4988172;28;20502;-56
2022/08/16 05:47:33;;;;;;;19.55;17.38;;;;;;;20.84;100.00;100061.56;4987995;28;20515;-55
2022/08/16 05:50:09;;;;;;;18.48;16.52;;;;;;;20.90;100.00;100056.38;4983810;28;20142;-56
2022/08/16 05:52:45;;;;;;;21.90;18.92;;;;;;;20.96;100.00;100065.53;4979692;28;20030;-56
2022/08/16 05:55:12;;;;;;;19.52;17.00;;;;;;;21.01;100.00;100068.53;4988084;28;20134;-57
2022/08/16 05:57:39;;;;;;;20.73;18.52;;;;;;;21.04;100.00;100068.22;4988997;28;20065;-57
2022/08/16 06:00:10;;;;;;;20.70;17.90;;;;;;;21.14;100.00;100059.97;4988371;28;20050;-54
2022/08/16 06:02:37;;;;;;;19.55;17.60;;;;;;;21.13;100.00;100067.16;4990097;28;20051;-56
2022/08/16 06:05:05;;;;;;;21.83;16.52;;;;;;;21.19;100.00;100066.47;4987584;28;20050;-59
2022/08/16 06:07:37;;;;;;;18.60;16.73;;;;;;;21.24;100.00;100063.28;4989092;28;20073;-58
2022/08/16 06:10:06;;;;;;;16.20;14.60;;;;;;;21.37;100.00;100066.28;4987918;28;20061;-58
2022/08/16 06:12:36;;;;;;;18.27;16.52;;;;;;;21.44;99.13;100072.63;4989310;28;20062;-58
2022/08/16 06:15:07;;;;;;;17.08;15.18;;;;;;;21.52;98.33;100081.59;4987298;28;20784;-58
2022/08/16 06:17:36;;;;;;;15.07;13.45;;;;;;;21.59;98.67;100075.38;4989114;28;20511;-58
2022/08/16 06:20:21;;;;;;;17.20;15.52;;;;;;;21.58;97.10;100078.25;4987829;28;20054;-57
2022/08/16 06:22:55;;;;;;;16.80;14.88;;;;;;;21.67;96.43;100079.88;4988643;28;20130;-57
2022/08/16 06:25:30;;;;;;;16.40;13.65;;;;;;;21.72;96.18;100083.69;4987930;28;20169;-57
2022/08/16 06:28:03;;;;;;;15.18;13.35;;;;;;;21.87;96.01;100089.13;4989642;28;20138;-56
2022/08/16 06:30:37;;;;;;;16.55;14.93;;;;;;;21.92;94.01;100088.59;5024061;23;20057;-87
2022/08/16 06:33:16;;;;;;;14.68;13.18;;;;;;;22.00;94.21;100097.41;4987978;28;20117;-84
2022/08/16 06:35:50;;;;;;;15.02;13.45;;;;;;;22.05;93.38;100101.41;4981067;28;20046;-85
2022/08/16 06:38:26;;;;;;;16.98;14.90;;;;;;;22.06;91.97;100101.22;5003003;28;20069;-87
2022/08/16 06:41:05;;;;;;;15.93;13.90;;;;;;;22.11;92.21;100101.56;4981125;28;20480;-86
2022/08/16 06:43:40;;;;;;;16.30;14.15;;;;;;;22.14;89.47;100113.78;5021329;23;21524;-55
2022/08/16 06:46:19;;;;;;;17.23;13.80;;;;;;;22.04;89.92;100113.16;5011217;28;20129;-51
2022/08/16 06:48:46;;;;;;;16.35;14.40;;;;;;;22.11;90.11;100114.09;5012342;28;20145;-54
2022/08/16 06:51:17;;;;;;;21.48;15.18;;;;;;;22.19;89.98;100125.63;5009297;28;20064;-52
2022/08/16 06:53:45;;;;;;;19.67;16.20;;;;;;;22.17;89.35;100126.84;5012172;28;20506;-52
2022/08/16 06:56:18;;;;;;;14.80;13.30;;;;;;;22.29;89.98;100125.44;5012925;28;20410;-55
2022/08/16 06:58:51;;;;;;;17.05;15.35;;;;;;;22.34;88.08;100135.63;5020867;28;20057;-53
2022/08/16 07:01:19;;;;;;;15.70;14.07;;;;;;;22.39;88.75;100128.69;5032228;28;20064;-54
2022/08/16 07:04:07;;;;;;;17.20;15.00;;;;;;;22.45;87.83;100130.66;5025540;28;20136;-55
2022/08/16 07:06:41;;;;;;;20.38;14.80;;;;;;;22.54;87.57;100130.59;5031223;28;20053;-54
2022/08/16 07:09:11;;;;;;;14.82;13.50;;;;;;;22.67;87.35;100125.44;5032838;28;20057;-54
2022/08/16 07:11:38;;;;;;;21.05;16.65;;;;;;;22.77;85.85;100135.94;5034344;28;20053;-52
2022/08/16 07:14:12;;;;;;;17.10;15.40;;;;;;;22.74;86.15;100132.59;5039975;28;20046;-54
2022/08/16 07:16:56;;;;;;;14.25;12.82;;;;;;;22.81;86.01;100138.06;5032911;28;20050;-56
2022/08/16 07:19:25;;;;;;;15.68;14.27;;;;;;;22.93;85.28;100139.34;5036023;28;20045;-57
2022/08/16 07:22:12;;;;;;;17.23;15.52;;;;;;;22.94;85.43;100134.78;5035853;28;20053;-54
2022/08/16 07:25:00;;;;;;;16.48;14.70;;;;;;;23.06;85.47;100136.03;5023046;28;20061;-55
2022/08/16 07:27:27;;;;;;;16.80;15.07;;;;;;;23.19;84.23;100138.06;5034639;28;20555;-58
2022/08/16 07:29:58;;;;;;;14.00;12.63;;;;;;;23.30;84.18;100142.16;5032444;28;20163;-58
2022/08/16 07:32:25;;;;;;;15.93;14.23;;;;;;;23.42;83.31;100140.69;5038440;28;20129;-57
2022/08/16 07:34:57;;;;;;;16.80;14.07;;;;;;;23.55;81.90;100140.00;5030219;28;20522;-57
2022/08/16 07:37:24;;;;;;;15.77;14.20;;;;;;;23.64;81.66;100144.25;5039065;28;20536;-57
2022/08/16 07:39:52;;;;;;;18.25;14.95;;;;;;;23.69;81.65;100152.66;5029327;28;20506;-55
2022/08/16 07:42:21;;;;;;;14.80;13.35;;;;;;;23.82;81.12;100157.34;5032760;28;20061;-55
2022/08/16 07:45:05;;;;;;;19.65;14.55;;;;;;;23.71;80.21;100151.44;5034538;28;20485;-54
2022/08/16 07:47:36;;;;;;;17.17;14.68;;;;;;;23.82;79.71;100151.97;5027532;28;20061;-56
2022/08/16 07:50:04;;;;;;;17.02;13.80;;;;;;;23.90;79.28;100154.53;5035004;28;20045;-58
2022/08/16 07:52:34;;;;;;;19.83;13.82;;;;;;;23.93;78.24;100155.00;5028832;28;20057;-57
2022/08/16 07:55:05;;;;;;;21.98;13.70;;;;;;;24.02;78.43;100154.91;5036649;28;20051;-55
2022/08/16 07:57:33;;;;;;;16.95;15.27;;;;;;;24.04;77.83;100160.91;5026049;28;20061;-58
2022/08/16 08:00:20;;;;;;;15.25;13.70;;;;;;;24.16;77.79;100157.53;5027231;28;20037;-55
2022/08/16 08:02:54;;;;;;;17.40;13.35;;;;;;;24.23;77.36;100166.53;5037372;28;20056;-59
2022/08/16 08:05:23;;;;;;;13.48;11.50;;;;;;;24.34;75.65;100161.66;5033910;28;20088;-55
2022/08/16 08:08:02;;;;;;;15.65;13.18;;;;;;;24.43;73.86;100163.25;5032841;28;20055;-56
2022/08/16 08:10:38;;;;;;;13.25;11.90;;;;;;;24.39;73.30;100156.56;5031872;28;20068;-56
2022/08/16 08:13:05;;;;;;;13.48;12.07;;;;;;;24.49;73.37;100160.59;5036267;28;20053;-55
2022/08/16 08:15:34;;;;;;;12.02;10.82;;;;;;;24.60;72.57;100153.88;5030898;28;20045;-57
2022/08/16 08:18:03;;;;;;;14.77;11.13;;;;;;;24.72;72.38;100165.81;5037002;28;20085;-54
2022/08/16 08:20:50;;;;;;;13.13;11.95;;;;;;;24.82;72.35;100167.34;5034485;28;20060;-54
2022/08/16 08:23:26;;;;;;;15.18;11.45;;;;;;;24.86;71.31;100168.63;5025685;28;20112;-55
2022/08/16 08:25:53;;;;;;;12.52;11.18;;;;;;;24.97;70.61;100178.84;5031256;28;20049;-54
2022/08/16 08:28:22;;;;;;;13.30;11.90;;;;;;;25.00;69.70;100170.38;5032484;28;20049;-55
2022/08/16 08:30:49;;;;;;;15.27;11.98;;;;;;;25.14;69.81;100182.94;5035773;28;20060;-56
2022/08/16 08:33:28;;;;;;;13.25;10.45;;;;;;;25.07;68.94;100182.03;5031615;28;20048;-57
2022/08/16 08:36:00;;;;;;;15.95;12.07;;;;;;;25.08;69.03;100190.97;5037020;28;20110;-55
2022/08/16 08:38:31;;;;;;;15.85;14.20;;;;;;;25.06;69.80;100193.81;5035539;28;20068;-54
2022/08/16 08:41:14;;;;;;;14.00;12.60;;;;;;;25.15;69.58;100181.09;5030811;28;20080;-54
2022/08/16 08:43:41;;;;;;;13.55;12.20;;;;;;;25.20;69.57;100186.72;5032703;28;20132;-56
2022/08/16 08:46:09;;;;;;;11.10;10.00;;;;;;;25.33;68.94;100178.72;5031748;28;20068;-56
2022/08/16 08:48:49;;;;;;;16.15;13.63;;;;;;;25.39;68.03;100194.09;5038529;28;20067;-59
2022/08/16 08:51:27;;;;;;;17.00;12.95;;;;;;;25.25;68.70;100193.16;5027801;28;20053;-57
2022/08/16 08:54:07;;;;;;;14.82;12.43;;;;;;;25.40;68.88;100192.25;5032530;28;20053;-55
2022/08/16 08:56:36;;;;;;;15.68;14.00;;;;;;;25.43;67.81;100198.06;5034398;28;20061;-56
2022/08/16 08:59:12;;;;;;;15.60;10.35;;;;;;;25.39;67.00;100193.25;5033098;28;20523;-54
2022/08/16 09:01:49;;;;;;;11.40;10.30;;;;;;;25.51;66.24;100191.69;5011636;28;20324;-53
2022/08/16 09:04:25;;;;;;;12.20;11.00;;;;;;;25.66;66.19;100194.25;5025402;28;20465;-55
2022/08/16 09:06:53;;;;;;;11.45;10.35;;;;;;;25.83;66.21;100194.78;5032082;28;20049;-57
2022/08/16 09:09:21;;;;;;;13.52;11.07;;;;;;;26.02;65.67;100196.72;5030165;28;20481;-54
2022/08/16 09:11:48;;;;;;;15.38;9.50;;;;;;;26.16;64.40;100198.47;5032515;28;20068;-54
2022/08/16 09:14:31;;;;;;;11.38;9.48;;;;;;;26.26;62.25;100204.31;5030643;28;20543;-51
2022/08/16 09:16:58;;;;;;;11.52;10.40;;;;;;;26.27;62.70;100207.84;5027404;28;20052;-55
2022/08/16 09:19:38;;;;;;;10.45;9.50;;;;;;;26.33;62.58;100207.00;5031312;28;20051;-56
2022/08/16 09:22:08;;;;;;;9.60;8.68;;;;;;;26.50;62.81;100204.81;5035281;28;20049;-53
2022/08/16 09:24:48;;;;;;;10.95;9.32;;;;;;;26.59;60.57;100203.56;5029904;28;20120;-56
2022/08/16 09:27:21;;;;;;;10.05;9.13;;;;;;;26.58;60.38;100207.31;5031151;28;20053;-54
2022/08/16 09:29:52;;;;;;;11.43;10.15;;;;;;;26.59;60.51;100200.88;5032615;28;20065;-56
2022/08/16 09:32:29;;;;;;;11.27;10.07;;;;;;;26.73;60.68;100204.44;5029051;28;20064;-58
2022/08/16 09:34:58;;;;;;;12.32;11.13;;;;;;;26.62;59.17;100210.44;5033398;28;20081;-57
2022/08/16 09:37:30;;;;;;;13.13;9.32;;;;;;;26.53;60.12;100211.69;5034950;28;20128;-54
2022/08/16 09:40:05;;;;;;;10.55;9.35;;;;;;;26.73;58.65;100210.66;5029572;28;20718;-56
2022/08/16 09:42:52;;;;;;;11.93;10.57;;;;;;;26.91;58.66;100198.41;5028103;28;20054;-57
2022/08/16 09:45:27;;;;;;;13.40;10.43;;;;;;;26.48;60.04;100204.19;5034017;28;20052;-60
2022/08/16 09:47:55;;;;;;;15.05;11.32;;;;;;;26.35;60.48;100206.81;5033896;28;20129;-56
2022/08/16 09:50:28;;;;;;;12.32;10.65;;;;;;;26.70;60.29;100203.00;5027397;28;20056;-57
2022/08/16 09:53:07;;;;;;;14.50;10.20;;;;;;;26.43;59.36;100202.09;5021284;28;20051;-57
2022/08/16 09:55:43;;;;;;;11.00;9.90;;;;;;;26.67;58.30;100197.16;5029963;28;20706;-57
2022/08/16 09:58:15;;;;;;;12.82;10.13;;;;;;;26.82;58.00;100191.56;5037596;28;20052;-57
2022/08/16 10:01:02;;;;;;;13.77;8.85;;;;;;;27.19;57.98;100200.94;5024613;28;20054;-55
2022/08/16 10:03:30;;;;;;;12.55;9.95;;;;;;;27.49;57.26;100191.31;5037383;28;20067;-55
2022/08/16 10:05:58;;;;;;;10.38;9.38;;;;;;;27.67;55.96;100196.06;5030117;28;20156;-57
2022/08/16 10:08:25;;;;;;;17.60;9.57;;;;;;;27.90;55.02;100202.88;5030696;28;20378;-50
2022/08/16 10:13:56;;;;;;;9.85;8.80;;;;;;;27.92;53.82;100212.47;5018599;28;20429;-57
2022/08/16 10:16:24;;;;;;;12.75;9.43;;;;;;;27.80;53.62;100206.03;5021374;28;20046;-54
2022/08/16 10:18:51;;;;;;;10.60;8.80;;;;;;;27.97;52.97;100203.69;5035182;28;20132;-55
2022/08/16 10:21:32;;;;;;;10.80;8.23;;;;;;;28.30;51.97;100198.13;5039566;28;20155;-57
2022/08/16 10:24:01;;;;;;;11.35;8.68;;;;;;;28.62;52.44;100199.00;5031118;28;20048;-58
2022/08/16 10:26:29;;;;;;;11.20;9.02;;;;;;;28.82;51.43;100198.88;5032786;28;20045;-56
2022/08/16 10:29:16;;;;;;;9.73;8.38;;;;;;;29.00;50.47;100198.13;5040977;28;20128;-56
2022/08/16 10:31:47;;;;;;;8.98;6.88;;;;;;;28.85;49.22;100194.88;5030287;28;20584;-56
2022/08/16 10:34:20;;;;;;;8.57;7.03;;;;;;;28.94;49.93;100193.53;5036455;28;20045;-54
2022/08/16 10:36:59;;;;;;;11.15;7.10;;;;;;;29.04;48.64;100190.34;5033714;28;20375;-55
2022/08/16 10:39:28;;;;;;;11.52;8.18;;;;;;;29.41;49.51;100191.28;5034354;28;20069;-59
2022/08/16 10:42:07;;;;;;;11.27;7.93;;;;;;;29.49;48.74;100196.38;5026109;28;20041;-59
2022/08/16 10:44:34;;;;;;;10.05;7.03;;;;;;;29.45;48.52;100195.16;5033368;28;20401;-57
2022/08/16 10:47:02;;;;;;;13.27;7.82;;;;;;;29.33;47.40;100191.56;5037841;28;20056;-55
2022/08/16 10:49:31;;;;;;;12.50;7.70;;;;;;;29.20;47.58;100192.50;5035906;28;20084;-57
2022/08/16 10:51:58;;;;;;;9.50;6.88;;;;;;;29.10;47.77;100197.63;5030541;28;20504;-55
2022/08/16 10:54:43;;;;;;;7.22;6.50;;;;;;;29.40;46.92;100192.31;5032349;28;20228;-56
2022/08/16 10:57:31;;;;;;;7.55;6.55;;;;;;;29.89;46.19;100199.50;5032997;28;20057;-56
2022/08/16 10:59:59;;;;;;;9.90;6.18;;;;;;;29.59;45.83;100201.34;5027893;28;20548;-57
2022/08/16 11:02:27;;;;;;;8.13;6.63;;;;;;;29.61;45.88;100199.22;5034882;28;20466;-51
2022/08/16 11:05:15;;;;;;;6.95;6.07;;;;;;;30.01;45.28;100189.56;5026866;28;20068;-54
2022/08/16 11:07:45;;;;;;;8.65;5.75;;;;;;;30.52;44.57;100192.84;5026600;28;20953;-56
2022/08/16 11:10:28;;;;;;;7.18;6.07;;;;;;;31.00;43.23;100187.31;5028218;28;20132;-55
2022/08/16 11:13:21;;;;;;;10.60;5.90;;;;;;;31.18;40.98;100189.09;5025514;28;20056;-57
2022/08/16 11:16:08;;;;;;;10.27;7.78;;;;;;;31.04;41.27;100198.53;5039149;28;20041;-58
2022/08/16 11:18:55;;;;;;;9.38;7.25;;;;;;;30.90;42.03;100202.53;5030632;28;20046;-54
2022/08/16 11:21:36;;;;;;;8.32;6.90;;;;;;;30.82;42.02;100201.00;5033768;28;20056;-59
2022/08/16 11:24:24;;;;;;;7.80;6.95;;;;;;;31.04;41.41;100195.81;5038863;28;20068;-55
2022/08/16 11:27:15;;;;;;;8.65;6.65;;;;;;;31.59;41.26;100194.66;5031209;28;20060;-56
2022/08/16 11:29:52;;;;;;;7.78;6.82;;;;;;;32.01;41.03;100200.72;5036288;28;20060;-56
2022/08/16 11:32:23;;;;;;;7.57;6.47;;;;;;;32.08;40.68;100198.69;5034906;28;20063;-56
2022/08/16 11:35:00;;;;;;;8.82;6.90;;;;;;;32.35;40.07;100198.94;5035537;28;20045;-52
2022/08/16 11:37:38;;;;;;;13.32;7.50;;;;;;;32.54;40.12;100205.03;5033269;28;20049;-56
2022/08/16 11:40:27;;;;;;;8.02;7.00;;;;;;;32.59;39.53;100199.66;5034800;28;20045;-51
2022/08/16 11:43:00;;;;;;;9.50;7.63;;;;;;;32.84;38.16;100196.56;5036649;28;20168;-57